Penns Park, Pennsylvania
Current Conditions -  °F | °C
As of 10:54 PM on Sunday 23 Nov 2014 (Local Time) from KDYL Reporting Station
Overcast Overcast  
Wind Chill: 48°   Ceiling: 6500
Heat Index: 48°   Visibility: 10mi
Dew Point: 44°   Wind: 0mph
Humidity: 86%   Direction: NA
Pressure: 29.97"   Gusts: NA
Location:  40.27°N, 75°W
Report Text: KDYL 240354Z AUTO 00000KT 10SM SCT050 OVC065 09/07 A2997 RMK AO2 PRESFR SLP149 T00890067
Loading
Personal Weather Stations






























Interactive Weather Map New forecast layout! Learn more

10-Day Weather Forecast

Advertisements
Track Severe Weather on mobile